sensor_id;sensor_type;location;lat;lon;timestamp;pressure;altitude;pressure_sealevel;temperature;humidity
59240;BME280;45010;53.640;10.578;2022-10-17T00:00:24;101390.66;;;25.53;42.49
59240;BME280;45010;53.640;10.578;2022-10-17T00:03:25;101403.28;;;25.64;42.77
59240;BME280;45010;53.640;10.578;2022-10-17T00:06:25;101401.06;;;25.61;42.29
59240;BME280;45010;53.640;10.578;2022-10-17T00:09:25;101387.31;;;25.58;42.50
59240;BME280;45010;53.640;10.578;2022-10-17T00:12:26;101379.53;;;25.56;42.50
59240;BME280;45010;53.640;10.578;2022-10-17T00:15:26;101369.31;;;25.53;42.57
59240;BME280;45010;53.640;10.578;2022-10-17T00:18:26;101371.34;;;25.51;42.86
59240;BME280;45010;53.640;10.578;2022-10-17T00:21:27;101377.13;;;25.48;42.90
59240;BME280;45010;53.640;10.578;2022-10-17T00:24:29;101360.41;;;25.34;42.90
59240;BME280;45010;53.640;10.578;2022-10-17T00:27:34;101395.22;;;25.46;42.67
59240;BME280;45010;53.640;10.578;2022-10-17T00:30:34;101396.69;;;25.42;42.93
59240;BME280;45010;53.640;10.578;2022-10-17T00:33:35;101392.41;;;25.41;42.75
59240;BME280;45010;53.640;10.578;2022-10-17T00:36:35;101403.50;;;25.37;42.80
59240;BME280;45010;53.640;10.578;2022-10-17T00:39:36;101390.44;;;25.29;42.87
59240;BME280;45010;53.640;10.578;2022-10-17T00:42:37;101397.00;;;25.33;42.84
59240;BME280;45010;53.640;10.578;2022-10-17T00:45:37;101407.06;;;25.31;43.11
59240;BME280;45010;53.640;10.578;2022-10-17T00:48:38;101416.09;;;25.30;42.99
59240;BME280;45010;53.640;10.578;2022-10-17T00:51:50;101411.81;;;25.29;42.90
59240;BME280;45010;53.640;10.578;2022-10-17T00:54:55;101401.41;;;25.21;43.15
59240;BME280;45010;53.640;10.578;2022-10-17T00:57:59;101394.41;;;25.20;42.99
59240;BME280;45010;53.640;10.578;2022-10-17T01:01:01;101375.06;;;25.06;43.07
59240;BME280;45010;53.640;10.578;2022-10-17T01:04:02;101401.41;;;25.21;43.19
59240;BME280;45010;53.640;10.578;2022-10-17T01:07:02;101419.28;;;25.20;43.30
59240;BME280;45010;53.640;10.578;2022-10-17T01:10:03;101416.81;;;25.19;43.07
59240;BME280;45010;53.640;10.578;2022-10-17T01:13:30;101424.25;;;25.17;43.00
59240;BME280;45010;53.640;10.578;2022-10-17T01:17:10;101419.19;;;25.08;43.08
59240;BME280;45010;53.640;10.578;2022-10-17T01:24:12;101409.09;;;25.10;43.12
59240;BME280;45010;53.640;10.578;2022-10-17T01:27:40;101414.66;;;25.09;43.17
59240;BME280;45010;53.640;10.578;2022-10-17T01:34:06;101407.88;;;25.06;43.03
59240;BME280;45010;53.640;10.578;2022-10-17T01:37:19;101402.66;;;24.93;43.26
59240;BME280;45010;53.640;10.578;2022-10-17T01:40:27;101390.00;;;24.81;43.20
59240;BME280;45010;53.640;10.578;2022-10-17T01:43:38;101405.91;;;24.95;43.23
59240;BME280;45010;53.640;10.578;2022-10-17T01:46:43;101407.13;;;24.99;43.24
59240;BME280;45010;53.640;10.578;2022-10-17T01:49:50;101393.63;;;24.94;43.20
59240;BME280;45010;53.640;10.578;2022-10-17T01:53:00;101406.38;;;24.92;43.36
59240;BME280;45010;53.640;10.578;2022-10-17T01:56:05;101409.19;;;24.97;43.28
59240;BME280;45010;53.640;10.578;2022-10-17T01:59:17;101403.25;;;24.95;43.14
59240;BME280;45010;53.640;10.578;2022-10-17T02:02:19;101398.94;;;24.94;43.37
59240;BME280;45010;53.640;10.578;2022-10-17T02:05:23;101369.94;;;24.72;43.37
59240;BME280;45010;53.640;10.578;2022-10-17T02:08:46;101401.03;;;24.92;43.35
59240;BME280;45010;53.640;10.578;2022-10-17T02:12:40;101396.56;;;24.85;43.43
59240;BME280;45010;53.640;10.578;2022-10-17T02:15:45;101401.44;;;24.89;43.44
59240;BME280;45010;53.640;10.578;2022-10-17T02:22:39;101387.34;;;24.81;43.34
59240;BME280;45010;53.640;10.578;2022-10-17T02:25:49;101387.50;;;24.87;43.50
59240;BME280;45010;53.640;10.578;2022-10-17T02:29:12;101390.41;;;24.85;43.46
59240;BME280;45010;53.640;10.578;2022-10-17T02:32:24;101387.75;;;24.78;43.54
59240;BME280;45010;53.640;10.578;2022-10-17T02:35:29;101378.09;;;24.77;43.49
59240;BME280;45010;53.640;10.578;2022-10-17T02:38:32;101386.31;;;24.82;43.53
59240;BME280;45010;53.640;10.578;2022-10-17T02:41:35;101357.03;;;24.69;43.52
59240;BME280;45010;53.640;10.578;2022-10-17T02:44:37;101368.28;;;24.71;43.44
59240;BME280;45010;53.640;10.578;2022-10-17T02:47:49;101375.22;;;24.79;43.49
59240;BME280;45010;53.640;10.578;2022-10-17T02:50:57;101381.38;;;24.79;43.67
59240;BME280;45010;53.640;10.578;2022-10-17T02:57:39;101373.00;;;24.76;43.60
59240;BME280;45010;53.640;10.578;2022-10-17T03:00:41;101374.84;;;24.75;43.63
59240;BME280;45010;53.640;10.578;2022-10-17T03:03:42;101373.22;;;24.74;43.61
59240;BME280;45010;53.640;10.578;2022-10-17T03:06:44;101363.78;;;24.71;43.86
59240;BME280;45010;53.640;10.578;2022-10-17T03:09:45;101362.53;;;24.74;43.72
59240;BME280;45010;53.640;10.578;2022-10-17T03:12:45;101358.47;;;24.71;43.75
59240;BME280;45010;53.640;10.578;2022-10-17T03:15:46;101362.97;;;24.71;43.66
59240;BME280;45010;53.640;10.578;2022-10-17T03:18:46;101356.00;;;24.70;43.76
59240;BME280;45010;53.640;10.578;2022-10-17T03:21:46;101335.53;;;24.64;43.99
59240;BME280;45010;53.640;10.578;2022-10-17T03:24:47;101321.59;;;24.62;43.60
59240;BME280;45010;53.640;10.578;2022-10-17T03:27:47;101324.44;;;24.67;43.68
59240;BME280;45010;53.640;10.578;2022-10-17T03:30:48;101314.63;;;24.61;43.68
59240;BME280;45010;53.640;10.578;2022-10-17T03:33:48;101325.47;;;24.66;43.77
59240;BME280;45010;53.640;10.578;2022-10-17T03:36:48;101320.38;;;24.57;43.76
59240;BME280;45010;53.640;10.578;2022-10-17T03:39:49;101331.03;;;24.64;43.65
59240;BME280;45010;53.640;10.578;2022-10-17T03:42:49;101339.22;;;24.63;43.87
59240;BME280;45010;53.640;10.578;2022-10-17T03:45:49;101339.22;;;24.63;43.81
59240;BME280;45010;53.640;10.578;2022-10-17T03:48:50;101337.59;;;24.62;43.94
59240;BME280;45010;53.640;10.578;2022-10-17T03:51:50;101334.94;;;24.62;43.71
59240;BME280;45010;53.640;10.578;2022-10-17T03:54:50;101318.75;;;24.56;43.75
59240;BME280;45010;53.640;10.578;2022-10-17T03:57:51;101322.84;;;24.59;43.68
59240;BME280;45010;53.640;10.578;2022-10-17T04:00:51;101329.00;;;24.60;43.76
59240;BME280;45010;53.640;10.578;2022-10-17T04:03:53;101315.91;;;24.51;43.64
59240;BME280;45010;53.640;10.578;2022-10-17T04:06:54;101320.38;;;24.57;43.71
59240;BME280;45010;53.640;10.578;2022-10-17T04:09:54;101326.75;;;24.56;44.03
59240;BME280;45010;53.640;10.578;2022-10-17T04:12:55;101327.81;;;24.55;43.82
59240;BME280;45010;53.640;10.578;2022-10-17T04:15:57;101319.63;;;24.50;43.84
59240;BME280;45010;53.640;10.578;2022-10-17T04:18:58;101320.84;;;24.54;43.83
59240;BME280;45010;53.640;10.578;2022-10-17T04:21:59;101313.84;;;24.53;43.84
59240;BME280;45010;53.640;10.578;2022-10-17T04:24:59;101313.84;;;24.53;43.94
59240;BME280;45010;53.640;10.578;2022-10-17T04:27:59;101309.56;;;24.52;43.97
59240;BME280;45010;53.640;10.578;2022-10-17T04:31:02;101317.56;;;24.52;43.80
59240;BME280;45010;53.640;10.578;2022-10-17T04:34:03;101315.91;;;24.51;43.97
59240;BME280;45010;53.640;10.578;2022-10-17T04:37:03;101304.47;;;24.51;43.83
59240;BME280;45010;53.640;10.578;2022-10-17T04:40:04;101276.91;;;24.31;44.04
59240;BME280;45010;53.640;10.578;2022-10-17T04:43:04;101302.00;;;24.49;43.74
59240;BME280;45010;53.640;10.578;2022-10-17T04:46:07;101301.16;;;24.49;43.80
59240;BME280;45010;53.640;10.578;2022-10-17T04:49:08;101286.00;;;24.49;43.93
59240;BME280;45010;53.640;10.578;2022-10-17T04:52:08;101296.66;;;24.49;43.88
59240;BME280;45010;53.640;10.578;2022-10-17T04:55:09;101292.38;;;24.48;43.86
59240;BME280;45010;53.640;10.578;2022-10-17T04:58:09;101292.59;;;24.47;43.89
59240;BME280;45010;53.640;10.578;2022-10-17T05:01:13;101286.41;;;24.46;43.89
59240;BME280;45010;53.640;10.578;2022-10-17T05:04:13;101292.59;;;24.47;43.80
59240;BME280;45010;53.640;10.578;2022-10-17T05:07:13;101284.78;;;24.45;43.76
59240;BME280;45010;53.640;10.578;2022-10-17T05:10:14;101284.78;;;24.45;43.94
59240;BME280;45010;53.640;10.578;2022-10-17T05:13:14;101284.00;;;24.44;43.94
59240;BME280;45010;53.640;10.578;2022-10-17T05:16:15;101282.34;;;24.43;43.89
59240;BME280;45010;53.640;10.578;2022-10-17T05:19:15;101284.19;;;24.43;43.92
59240;BME280;45010;53.640;10.578;2022-10-17T05:22:17;101276.22;;;24.43;43.92
59240;BME280;45010;53.640;10.578;2022-10-17T05:25:18;101269.25;;;24.42;44.00
59240;BME280;45010;53.640;10.578;2022-10-17T05:28:18;101269.06;;;24.37;43.94
59240;BME280;45010;53.640;10.578;2022-10-17T05:31:18;101284.41;;;24.41;43.82
59240;BME280;45010;53.640;10.578;2022-10-17T05:34:19;101285.44;;;24.40;43.97
59240;BME280;45010;53.640;10.578;2022-10-17T05:37:19;101279.28;;;24.40;43.42
59240;BME280;45010;53.640;10.578;2022-10-17T05:40:20;101265.19;;;24.33;43.57
59240;BME280;45010;53.640;10.578;2022-10-17T05:43:20;101267.00;;;24.39;43.90
59240;BME280;45010;53.640;10.578;2022-10-17T05:46:20;101268.03;;;24.38;43.60
59240;BME280;45010;53.640;10.578;2022-10-17T05:49:21;101285.66;;;24.39;43.99
59240;BME280;45010;53.640;10.578;2022-10-17T05:52:21;101277.88;;;24.37;43.80
59240;BME280;45010;53.640;10.578;2022-10-17T05:55:22;101264.59;;;24.30;43.81
59240;BME280;45010;53.640;10.578;2022-10-17T05:58:22;101248.09;;;24.15;43.97
59240;BME280;45010;53.640;10.578;2022-10-17T06:01:22;101287.72;;;24.37;43.97
59240;BME280;45010;53.640;10.578;2022-10-17T06:04:23;101275.44;;;24.36;43.89
59240;BME280;45010;53.640;10.578;2022-10-17T06:07:23;101260.31;;;24.29;43.98
59240;BME280;45010;53.640;10.578;2022-10-17T06:10:24;101193.75;;;23.84;43.92
59240;BME280;45010;53.640;10.578;2022-10-17T06:13:24;101269.31;;;24.28;44.09
59240;BME280;45010;53.640;10.578;2022-10-17T06:16:25;101268.13;;;24.24;44.03
59240;BME280;45010;53.640;10.578;2022-10-17T06:19:25;101271.38;;;24.26;43.74
59240;BME280;45010;53.640;10.578;2022-10-17T06:22:26;101265.84;;;24.28;44.21
59240;BME280;45010;53.640;10.578;2022-10-17T06:25:27;101278.09;;;24.36;44.52
59240;BME280;45010;53.640;10.578;2022-10-17T06:28:28;101275.22;;;24.37;44.64
59240;BME280;45010;53.640;10.578;2022-10-17T06:31:29;101244.78;;;24.20;44.65
59240;BME280;45010;53.640;10.578;2022-10-17T06:34:29;101279.28;;;24.40;44.76
59240;BME280;45010;53.640;10.578;2022-10-17T06:37:31;101271.75;;;24.37;44.67
59240;BME280;45010;53.640;10.578;2022-10-17T06:40:32;101286.41;;;24.46;44.54
59240;BME280;45010;53.640;10.578;2022-10-17T06:43:33;101291.34;;;24.49;44.71
59240;BME280;45010;53.640;10.578;2022-10-17T06:46:33;101284.50;;;24.53;44.59
59240;BME280;45010;53.640;10.578;2022-10-17T06:49:34;101278.75;;;24.56;44.51
59240;BME280;45010;53.640;10.578;2022-10-17T06:52:34;101283.44;;;24.61;44.34
59240;BME280;45010;53.640;10.578;2022-10-17T06:55:34;101278.47;;;24.65;44.32
59240;BME280;45010;53.640;10.578;2022-10-17T06:58:37;101277.91;;;24.63;44.12
59240;BME280;45010;53.640;10.578;2022-10-17T07:01:38;101279.25;;;24.72;44.36
59240;BME280;45010;53.640;10.578;2022-10-17T07:04:39;101285.78;;;24.76;44.18
59240;BME280;45010;53.640;10.578;2022-10-17T07:07:39;101278.38;;;24.78;44.12
59240;BME280;45010;53.640;10.578;2022-10-17T07:10:39;101267.31;;;24.81;43.96
59240;BME280;45010;53.640;10.578;2022-10-17T07:13:40;101252.44;;;24.67;44.06
59240;BME280;45010;53.640;10.578;2022-10-17T07:16:40;101280.81;;;24.87;44.04
59240;BME280;45010;53.640;10.578;2022-10-17T07:19:40;101277.69;;;24.90;43.98
59240;BME280;45010;53.640;10.578;2022-10-17T07:22:42;101286.88;;;24.94;43.84
59240;BME280;45010;53.640;10.578;2022-10-17T07:25:42;101296.31;;;24.96;43.83
59240;BME280;45010;53.640;10.578;2022-10-17T07:28:44;101295.06;;;24.99;43.64
59240;BME280;45010;53.640;10.578;2022-10-17T07:31:45;101289.28;;;25.02;43.54
59240;BME280;45010;53.640;10.578;2022-10-17T07:34:47;101291.50;;;25.05;43.74
59240;BME280;45010;53.640;10.578;2022-10-17T07:37:48;101274.16;;;24.96;43.76
59240;BME280;45010;53.640;10.578;2022-10-17T07:40:59;101294.53;;;25.09;43.64
59240;BME280;45010;53.640;10.578;2022-10-17T07:43:59;101281.28;;;25.02;43.65
59240;BME280;45010;53.640;10.578;2022-10-17T07:47:00;101289.66;;;25.06;43.68
59240;BME280;45010;53.640;10.578;2022-10-17T07:50:04;101282.75;;;24.98;43.70
59240;BME280;45010;53.640;10.578;2022-10-17T07:53:05;101299.97;;;25.02;43.62
59240;BME280;45010;53.640;10.578;2022-10-17T07:56:06;101291.34;;;25.00;43.62
59240;BME280;45010;53.640;10.578;2022-10-17T07:59:07;101287.72;;;24.94;43.18
59240;BME280;45010;53.640;10.578;2022-10-17T08:02:17;101283.00;;;24.90;43.47
59240;BME280;45010;53.640;10.578;2022-10-17T08:05:19;101270.97;;;24.87;43.65
59240;BME280;45010;53.640;10.578;2022-10-17T08:08:20;101283.19;;;24.95;43.68
59240;BME280;45010;53.640;10.578;2022-10-17T08:11:20;101281.53;;;24.94;43.60
59240;BME280;45010;53.640;10.578;2022-10-17T08:14:21;101291.44;;;24.93;43.56
59240;BME280;45010;53.640;10.578;2022-10-17T08:17:22;101293.25;;;24.93;43.64
59240;BME280;45010;53.640;10.578;2022-10-17T08:20:22;101299.44;;;24.93;43.84
59240;BME280;45010;53.640;10.578;2022-10-17T08:23:22;101281.75;;;24.92;43.91
59240;BME280;45010;53.640;10.578;2022-10-17T08:26:23;101267.47;;;24.87;43.90
59240;BME280;45010;53.640;10.578;2022-10-17T08:29:23;101279.09;;;24.92;44.06
59240;BME280;45010;53.640;10.578;2022-10-17T08:32:25;101266.41;;;24.88;44.27
59240;BME280;45010;53.640;10.578;2022-10-17T08:35:26;101245.38;;;24.72;44.22
59240;BME280;45010;53.640;10.578;2022-10-17T08:38:31;101273.84;;;24.85;44.42
59240;BME280;45010;53.640;10.578;2022-10-17T08:48:22;101258.25;;;24.82;44.57
59240;BME280;45010;53.640;10.578;2022-10-17T08:51:27;101266.41;;;24.88;44.46
59240;BME280;45010;53.640;10.578;2022-10-17T08:54:39;101251.72;;;24.78;44.75
59240;BME280;45010;53.640;10.578;2022-10-17T08:57:41;101253.34;;;24.79;44.47
59240;BME280;45010;53.640;10.578;2022-10-17T09:10:57;101234.34;;;24.69;44.70
59240;BME280;45010;53.640;10.578;2022-10-17T09:17:17;101246.78;;;24.82;44.81
59240;BME280;45010;53.640;10.578;2022-10-17T09:20:22;101240.66;;;24.75;44.75
59240;BME280;45010;53.640;10.578;2022-10-17T09:23:26;101249.63;;;24.80;44.74
59240;BME280;45010;53.640;10.578;2022-10-17T09:26:29;101248.00;;;24.79;44.80
59240;BME280;45010;53.640;10.578;2022-10-17T09:29:30;101248.81;;;24.80;44.74
59240;BME280;45010;53.640;10.578;2022-10-17T09:32:30;101247.19;;;24.79;44.79
59240;BME280;45010;53.640;10.578;2022-10-17T09:35:31;101246.38;;;24.78;44.76
59240;BME280;45010;53.640;10.578;2022-10-17T09:38:48;101233.31;;;24.70;44.87
59240;BME280;45010;53.640;10.578;2022-10-17T09:41:52;101250.06;;;24.77;44.90
59240;BME280;45010;53.640;10.578;2022-10-17T09:45:32;101258.31;;;24.76;44.87
59240;BME280;45010;53.640;10.578;2022-10-17T09:48:41;101261.59;;;24.71;44.84
59240;BME280;45010;53.640;10.578;2022-10-17T09:51:44;101257.16;;;24.65;44.63
59240;BME280;45010;53.640;10.578;2022-10-17T09:54:46;101285.78;;;24.76;44.75
59240;BME280;45010;53.640;10.578;2022-10-17T09:57:58;101276.81;;;24.70;44.75
59240;BME280;45010;53.640;10.578;2022-10-17T10:01:23;101266.19;;;24.64;45.13
59240;BME280;45010;53.640;10.578;2022-10-17T10:04:24;101282.06;;;24.77;45.65
59240;BME280;45010;53.640;10.578;2022-10-17T10:07:29;101277.59;;;24.71;45.50
59240;BME280;45010;53.640;10.578;2022-10-17T10:10:30;101285.34;;;24.79;45.64
59240;BME280;45010;53.640;10.578;2022-10-17T10:13:33;101275.88;;;24.83;45.56
59240;BME280;45010;53.640;10.578;2022-10-17T10:16:40;101270.13;;;24.87;45.73
59240;BME280;45010;53.640;10.578;2022-10-17T10:19:48;101261.75;;;24.83;45.74
59240;BME280;45010;53.640;10.578;2022-10-17T10:23:08;101274.59;;;24.93;46.01
59240;BME280;45010;53.640;10.578;2022-10-17T10:26:22;101283.19;;;24.95;45.78
59240;BME280;45010;53.640;10.578;2022-10-17T10:29:48;101282.38;;;24.94;45.61
59240;BME280;45010;53.640;10.578;2022-10-17T10:32:49;101272.50;;;24.95;45.67
59240;BME280;45010;53.640;10.578;2022-10-17T10:36:08;101259.00;;;24.90;45.80
59240;BME280;45010;53.640;10.578;2022-10-17T10:39:27;101270.59;;;25.02;45.55
59240;BME280;45010;53.640;10.578;2022-10-17T10:42:32;101284.69;;;25.09;45.59
59240;BME280;45010;53.640;10.578;2022-10-17T10:48:36;101268.22;;;25.12;45.66
59240;BME280;45010;53.640;10.578;2022-10-17T10:51:43;101282.19;;;25.15;45.60
59240;BME280;45010;53.640;10.578;2022-10-17T10:54:54;101281.66;;;25.24;45.68
59240;BME280;45010;53.640;10.578;2022-10-17T10:58:02;101268.97;;;25.20;45.55
59240;BME280;45010;53.640;10.578;2022-10-17T11:01:08;101281.00;;;25.29;45.60
59240;BME280;45010;53.640;10.578;2022-10-17T11:04:20;101267.22;;;25.32;45.59
59240;BME280;45010;53.640;10.578;2022-10-17T11:07:42;101280.31;;;25.34;45.55
59240;BME280;45010;53.640;10.578;2022-10-17T11:11:06;101275.34;;;25.37;45.58
59240;BME280;45010;53.640;10.578;2022-10-17T11:14:41;101280.25;;;25.41;45.56
59240;BME280;45010;53.640;10.578;2022-10-17T11:21:13;101274.44;;;25.44;45.33
59240;BME280;45010;53.640;10.578;2022-10-17T11:24:22;101280.25;;;25.41;45.57
59240;BME280;45010;53.640;10.578;2022-10-17T11:27:23;101293.53;;;25.47;45.22
59240;BME280;45010;53.640;10.578;2022-10-17T11:30:27;101259.63;;;25.29;45.16
59240;BME280;45010;53.640;10.578;2022-10-17T11:33:44;101291.66;;;25.48;45.83
59240;BME280;45010;53.640;10.578;2022-10-17T11:36:49;101288.56;;;25.51;45.55
59240;BME280;45010;53.640;10.578;2022-10-17T11:39:54;101286.09;;;25.49;45.71
59240;BME280;45010;53.640;10.578;2022-10-17T11:42:59;101287.94;;;25.49;45.97
59240;BME280;45010;53.640;10.578;2022-10-17T11:46:05;101306.44;;;25.50;45.88
59240;BME280;45010;53.640;10.578;2022-10-17T11:49:13;101298.63;;;25.49;45.96
59240;BME280;45010;53.640;10.578;2022-10-17T11:52:33;101286.69;;;25.51;46.30
59240;BME280;45010;53.640;10.578;2022-10-17T11:55:35;101284.25;;;25.50;46.55
59240;BME280;45010;53.640;10.578;2022-10-17T11:58:57;101267.06;;;25.46;46.51
59240;BME280;45010;53.640;10.578;2022-10-17T12:02:11;101285.03;;;25.57;46.63
59240;BME280;45010;53.640;10.578;2022-10-17T12:08:48;101270.78;;;25.63;46.66
59240;BME280;45010;53.640;10.578;2022-10-17T12:11:55;101263.91;;;25.68;46.46
59240;BME280;45010;53.640;10.578;2022-10-17T12:18:16;101242.81;;;25.66;46.63
59240;BME280;45010;53.640;10.578;2022-10-17T12:21:16;101239.09;;;25.67;46.48
59240;BME280;45010;53.640;10.578;2022-10-17T12:24:30;101258.50;;;25.74;46.41
59240;BME280;45010;53.640;10.578;2022-10-17T12:30:48;101264.22;;;25.78;46.78
59240;BME280;45010;53.640;10.578;2022-10-17T12:33:57;101275.72;;;25.78;46.42
59240;BME280;45010;53.640;10.578;2022-10-17T12:36:58;101282.91;;;25.78;46.31
59240;BME280;45010;53.640;10.578;2022-10-17T12:39:59;101292.81;;;25.77;46.83
59240;BME280;45010;53.640;10.578;2022-10-17T12:43:00;101296.28;;;25.78;46.90
59240;BME280;45010;53.640;10.578;2022-10-17T12:46:02;101292.88;;;25.71;46.71
59240;BME280;45010;53.640;10.578;2022-10-17T12:49:03;101279.50;;;25.71;47.05
59240;BME280;45010;53.640;10.578;2022-10-17T12:55:34;101294.66;;;25.77;47.12
59240;BME280;45010;53.640;10.578;2022-10-17T12:58:35;101279.50;;;25.71;47.17
59240;BME280;45010;53.640;10.578;2022-10-17T13:01:37;101273.88;;;25.60;47.12
59240;BME280;45010;53.640;10.578;2022-10-17T13:04:38;101301.63;;;25.78;47.11
59240;BME280;45010;53.640;10.578;2022-10-17T13:07:41;101304.28;;;25.78;47.33
59240;BME280;45010;53.640;10.578;2022-10-17T13:10:45;101321.16;;;25.78;46.71
59240;BME280;45010;53.640;10.578;2022-10-17T13:13:49;101321.38;;;25.77;46.79
59240;BME280;45010;53.640;10.578;2022-10-17T13:16:52;101317.66;;;25.78;47.20
59240;BME280;45010;53.640;10.578;2022-10-17T13:19:54;101318.69;;;25.77;46.97
59240;BME280;45010;53.640;10.578;2022-10-17T13:22:55;101331.22;;;25.76;46.85
59240;BME280;45010;53.640;10.578;2022-10-17T13:26:17;101332.94;;;25.71;46.95
59240;BME280;45010;53.640;10.578;2022-10-17T13:29:19;101335.75;;;25.76;46.89
59240;BME280;45010;53.640;10.578;2022-10-17T13:32:22;101332.94;;;25.71;46.83
59240;BME280;45010;53.640;10.578;2022-10-17T13:35:31;101363.53;;;25.75;46.61
59240;BME280;45010;53.640;10.578;2022-10-17T13:38:33;101369.88;;;25.74;46.80
59240;BME280;45010;53.640;10.578;2022-10-17T13:41:34;101414.72;;;25.72;46.93
59240;BME280;45010;53.640;10.578;2022-10-17T13:44:34;101400.88;;;25.56;47.17
59240;BME280;45010;53.640;10.578;2022-10-17T13:47:36;101314.81;;;25.73;46.80
59240;BME280;45010;53.640;10.578;2022-10-17T13:50:40;101315.28;;;25.70;46.72
59240;BME280;45010;53.640;10.578;2022-10-17T13:53:41;101332.06;;;25.77;47.09
59240;BME280;45010;53.640;10.578;2022-10-17T13:56:43;101342.72;;;25.77;46.86
59240;BME280;45010;53.640;10.578;2022-10-17T13:59:45;101360.84;;;25.75;46.61
59240;BME280;45010;53.640;10.578;2022-10-17T14:02:49;101375.63;;;25.77;46.80
59240;BME280;45010;53.640;10.578;2022-10-17T14:09:28;101392.09;;;25.74;46.45
59240;BME280;45010;53.640;10.578;2022-10-17T14:12:29;101428.91;;;25.72;46.62
59240;BME280;45010;53.640;10.578;2022-10-17T14:15:32;101431.63;;;25.65;46.49
59240;BME280;45010;53.640;10.578;2022-10-17T14:18:34;101402.25;;;25.65;46.65
59240;BME280;45010;53.640;10.578;2022-10-17T14:21:35;101411.38;;;25.76;46.87
59240;BME280;45010;53.640;10.578;2022-10-17T14:24:35;101401.50;;;25.77;46.80
59240;BME280;45010;53.640;10.578;2022-10-17T14:27:50;101382.22;;;25.75;46.59
59240;BME280;45010;53.640;10.578;2022-10-17T14:30:53;101392.91;;;25.75;46.44
59240;BME280;45010;53.640;10.578;2022-10-17T14:33:54;101381.56;;;25.79;46.57
59240;BME280;45010;53.640;10.578;2022-10-17T14:36:55;101365.75;;;25.78;46.70
59240;BME280;45010;53.640;10.578;2022-10-17T14:39:58;101346.44;;;25.76;46.56
59240;BME280;45010;53.640;10.578;2022-10-17T14:43:02;101342.44;;;25.67;46.81
59240;BME280;45010;53.640;10.578;2022-10-17T14:46:04;101355.94;;;25.72;46.59
59240;BME280;45010;53.640;10.578;2022-10-17T14:49:07;101344.53;;;25.64;46.42
59240;BME280;45010;53.640;10.578;2022-10-17T14:55:27;101365.44;;;25.68;46.45
59240;BME280;45010;53.640;10.578;2022-10-17T14:58:29;101356.84;;;25.65;46.54
59240;BME280;45010;53.640;10.578;2022-10-17T15:01:31;101364.25;;;25.63;46.55
59240;BME280;45010;53.640;10.578;2022-10-17T15:04:31;101393.66;;;25.63;46.66
59240;BME280;45010;53.640;10.578;2022-10-17T15:07:31;101398.38;;;25.61;46.54
59240;BME280;45010;53.640;10.578;2022-10-17T15:10:34;101396.19;;;25.51;46.30
59240;BME280;45010;53.640;10.578;2022-10-17T15:13:35;101396.00;;;25.53;46.37
59240;BME280;45010;53.640;10.578;2022-10-17T15:16:35;101413.22;;;25.57;46.24
59240;BME280;45010;53.640;10.578;2022-10-17T15:19:38;101423.91;;;25.57;46.41
59240;BME280;45010;53.640;10.578;2022-10-17T15:22:38;101430.50;;;25.55;46.60
59240;BME280;45010;53.640;10.578;2022-10-17T15:25:39;101429.75;;;25.47;46.41
59240;BME280;45010;53.640;10.578;2022-10-17T15:28:39;101448.56;;;25.52;46.57
59240;BME280;45010;53.640;10.578;2022-10-17T15:31:39;101462.16;;;25.51;46.18
59240;BME280;45010;53.640;10.578;2022-10-17T15:34:41;101449.44;;;25.46;46.22
59240;BME280;45010;53.640;10.578;2022-10-17T15:37:41;101462.97;;;25.51;46.68
59240;BME280;45010;53.640;10.578;2022-10-17T15:40:42;101450.28;;;25.47;46.65
59240;BME280;45010;53.640;10.578;2022-10-17T15:43:42;101464.19;;;25.56;46.66
59240;BME280;45010;53.640;10.578;2022-10-17T15:46:43;101471.75;;;25.59;46.67
59240;BME280;45010;53.640;10.578;2022-10-17T15:49:43;101476.88;;;25.60;46.92
59240;BME280;45010;53.640;10.578;2022-10-17T15:52:43;101473.16;;;25.61;46.63
59240;BME280;45010;53.640;10.578;2022-10-17T15:55:46;101481.81;;;25.63;46.44
59240;BME280;45010;53.640;10.578;2022-10-17T15:58:50;101478.13;;;25.58;46.72
59240;BME280;45010;53.640;10.578;2022-10-17T16:01:50;101482.38;;;25.65;46.60
59240;BME280;45010;53.640;10.578;2022-10-17T16:04:51;101482.22;;;25.60;46.52
59240;BME280;45010;53.640;10.578;2022-10-17T16:07:52;101482.00;;;25.62;46.19
59240;BME280;45010;53.640;10.578;2022-10-17T16:10:52;101489.97;;;25.69;46.42
59240;BME280;45010;53.640;10.578;2022-10-17T16:13:55;101463.78;;;25.52;46.23
59240;BME280;45010;53.640;10.578;2022-10-17T16:16:56;101494.03;;;25.71;46.06
59240;BME280;45010;53.640;10.578;2022-10-17T16:19:56;101490.34;;;25.72;46.25
59240;BME280;45010;53.640;10.578;2022-10-17T16:22:57;101491.97;;;25.73;46.13
59240;BME280;45010;53.640;10.578;2022-10-17T16:25:59;101499.78;;;25.75;46.06
59240;BME280;45010;53.640;10.578;2022-10-17T16:29:00;101502.22;;;25.76;46.21
59240;BME280;45010;53.640;10.578;2022-10-17T16:32:02;101510.22;;;25.76;45.82
59240;BME280;45010;53.640;10.578;2022-10-17T16:35:03;101503.03;;;25.77;46.21
59240;BME280;45010;53.640;10.578;2022-10-17T16:38:05;101503.91;;;25.71;45.87
59240;BME280;45010;53.640;10.578;2022-10-17T16:41:27;101512.16;;;25.69;45.84
59240;BME280;45010;53.640;10.578;2022-10-17T16:44:28;101518.91;;;25.72;45.94
59240;BME280;45010;53.640;10.578;2022-10-17T16:47:28;101523.66;;;25.70;45.79
59240;BME280;45010;53.640;10.578;2022-10-17T16:50:28;101522.03;;;25.69;46.03